sensor_id;sensor_type;location;lat;lon;timestamp;pressure;altitude;pressure_sealevel;temperature;humidity
44138;BME280;29800;55.942;37.314;2023-03-14T00:01:21;99083.66;;;-4.19;67.53
44138;BME280;29800;55.942;37.314;2023-03-14T00:03:47;99069.78;;;-4.14;67.45
44138;BME280;29800;55.942;37.314;2023-03-14T00:06:15;99073.59;;;-4.09;67.82
44138;BME280;29800;55.942;37.314;2023-03-14T00:08:42;99058.03;;;-4.05;67.35
44138;BME280;29800;55.942;37.314;2023-03-14T00:11:13;99063.72;;;-4.00;67.95
44138;BME280;29800;55.942;37.314;2023-03-14T00:13:40;99058.22;;;-3.98;67.68
44138;BME280;29800;55.942;37.314;2023-03-14T00:16:09;99038.94;;;-3.94;67.70
44138;BME280;29800;55.942;37.314;2023-03-14T00:18:36;99039.13;;;-3.95;67.98
44138;BME280;29800;55.942;37.314;2023-03-14T00:21:04;99021.38;;;-3.88;68.30
44138;BME280;29800;55.942;37.314;2023-03-14T00:23:32;99022.34;;;-3.81;67.67
44138;BME280;29800;55.942;37.314;2023-03-14T00:26:03;99016.81;;;-3.79;67.85
44138;BME280;29800;55.942;37.314;2023-03-14T00:28:30;99028.69;;;-3.74;67.96
44138;BME280;29800;55.942;37.314;2023-03-14T00:30:57;99007.28;;;-3.74;68.09
44138;BME280;29800;55.942;37.314;2023-03-14T00:33:23;99012.94;;;-3.68;67.97
44138;BME280;29800;55.942;37.314;2023-03-14T00:35:55;99021.09;;;-3.62;68.06
44138;BME280;29800;55.942;37.314;2023-03-14T00:38:22;99011.03;;;-3.60;67.90
44138;BME280;29800;55.942;37.314;2023-03-14T00:40:51;99013.72;;;-3.60;68.48
44138;BME280;29800;55.942;37.314;2023-03-14T00:43:18;99010.69;;;-3.57;68.43
44138;BME280;29800;55.942;37.314;2023-03-14T00:45:51;99007.00;;;-3.56;68.76
44138;BME280;29800;55.942;37.314;2023-03-14T00:48:18;98989.94;;;-3.55;69.06
44138;BME280;29800;55.942;37.314;2023-03-14T00:50:45;98991.59;;;-3.54;69.67
44138;BME280;29800;55.942;37.314;2023-03-14T00:53:15;98982.03;;;-3.48;69.20
44138;BME280;29800;55.942;37.314;2023-03-14T00:55:42;98974.84;;;-3.47;69.63
44138;BME280;29800;55.942;37.314;2023-03-14T00:58:13;98977.13;;;-3.44;69.88
44138;BME280;29800;55.942;37.314;2023-03-14T01:00:41;98987.66;;;-3.43;70.53
44138;BME280;29800;55.942;37.314;2023-03-14T01:03:07;98978.47;;;-3.40;70.83
44138;BME280;29800;55.942;37.314;2023-03-14T01:05:34;98978.28;;;-3.39;70.75
44138;BME280;29800;55.942;37.314;2023-03-14T01:08:00;98985.06;;;-3.28;71.25
44138;BME280;29800;55.942;37.314;2023-03-14T01:10:27;98980.06;;;-3.31;71.00
44138;BME280;29800;55.942;37.314;2023-03-14T01:12:53;98971.00;;;-3.30;71.31
44138;BME280;29800;55.942;37.314;2023-03-14T01:15:20;98971.31;;;-3.25;71.71
44138;BME280;29800;55.942;37.314;2023-03-14T01:17:46;98945.94;;;-3.29;72.36
44138;BME280;29800;55.942;37.314;2023-03-14T01:20:14;98930.22;;;-3.32;72.94
44138;BME280;29800;55.942;37.314;2023-03-14T01:22:41;98927.53;;;-3.32;73.65
44138;BME280;29800;55.942;37.314;2023-03-14T01:25:13;98929.56;;;-3.34;73.99
44138;BME280;29800;55.942;37.314;2023-03-14T01:27:40;98912.03;;;-3.37;75.01
44138;BME280;29800;55.942;37.314;2023-03-14T01:30:08;98903.81;;;-3.35;75.44
44138;BME280;29800;55.942;37.314;2023-03-14T01:32:35;98896.25;;;-3.32;75.64
44138;BME280;29800;55.942;37.314;2023-03-14T01:35:01;98905.50;;;-3.34;76.51
44138;BME280;29800;55.942;37.314;2023-03-14T01:37:28;98893.47;;;-3.38;76.57
44138;BME280;29800;55.942;37.314;2023-03-14T01:39:55;98885.09;;;-3.35;77.44
44138;BME280;29800;55.942;37.314;2023-03-14T01:42:21;98872.06;;;-3.38;78.01
44138;BME280;29800;55.942;37.314;2023-03-14T01:44:54;98893.75;;;-3.33;78.23
44138;BME280;29800;55.942;37.314;2023-03-14T01:47:21;98910.50;;;-3.31;78.35
44138;BME280;29800;55.942;37.314;2023-03-14T01:49:54;98899.03;;;-3.25;78.99
44138;BME280;29800;55.942;37.314;2023-03-14T01:52:29;98889.00;;;-3.23;79.04
44138;BME280;29800;55.942;37.314;2023-03-14T01:55:06;98872.56;;;-3.20;79.61
44138;BME280;29800;55.942;37.314;2023-03-14T01:57:36;98863.88;;;-3.22;79.53
44138;BME280;29800;55.942;37.314;2023-03-14T02:00:05;98867.00;;;-3.18;80.27
44138;BME280;29800;55.942;37.314;2023-03-14T02:03:05;98867.00;;;-3.18;80.63
44138;BME280;29800;55.942;37.314;2023-03-14T02:05:39;98857.78;;;-3.16;80.46
44138;BME280;29800;55.942;37.314;2023-03-14T02:08:14;98835.00;;;-3.11;80.63
44138;BME280;29800;55.942;37.314;2023-03-14T02:10:57;98819.94;;;-3.12;81.01
44138;BME280;29800;55.942;37.314;2023-03-14T02:13:36;98820.94;;;-3.14;81.17
44138;BME280;29800;55.942;37.314;2023-03-14T02:16:21;98811.91;;;-3.12;81.23
44138;BME280;29800;55.942;37.314;2023-03-14T02:19:07;98811.56;;;-3.09;81.61
44138;BME280;29800;55.942;37.314;2023-03-14T02:22:05;98806.19;;;-3.09;81.61
44138;BME280;29800;55.942;37.314;2023-03-14T02:25:23;98812.84;;;-3.05;81.91
44138;BME280;29800;55.942;37.314;2023-03-14T02:27:30;98799.16;;;-3.10;82.20
44138;BME280;29800;55.942;37.314;2023-03-14T02:30:03;98797.13;;;-3.08;82.70
44138;BME280;29800;55.942;37.314;2023-03-14T02:32:33;98781.25;;;-3.10;83.29
44138;BME280;29800;55.942;37.314;2023-03-14T02:35:06;98784.13;;;-3.11;83.43
44138;BME280;29800;55.942;37.314;2023-03-14T02:38:03;98781.38;;;-3.03;84.03
44138;BME280;29800;55.942;37.314;2023-03-14T02:40:36;98783.47;;;-2.99;84.12
44138;BME280;29800;55.942;37.314;2023-03-14T02:43:03;98781.91;;;-2.93;84.38
44138;BME280;29800;55.942;37.314;2023-03-14T02:45:40;98777.56;;;-2.94;84.33
44138;BME280;29800;55.942;37.314;2023-03-14T02:48:33;98781.72;;;-2.91;84.74
44138;BME280;29800;55.942;37.314;2023-03-14T02:50:59;98779.31;;;-2.86;84.89
44138;BME280;29800;55.942;37.314;2023-03-14T02:53:32;98785.94;;;-2.82;84.65
44138;BME280;29800;55.942;37.314;2023-03-14T02:56:04;98791.69;;;-2.85;85.29
44138;BME280;29800;55.942;37.314;2023-03-14T02:58:35;98786.13;;;-2.84;85.10
44138;BME280;29800;55.942;37.314;2023-03-14T03:01:14;98776.72;;;-2.80;85.49
44138;BME280;29800;55.942;37.314;2023-03-14T03:03:40;98757.22;;;-2.73;85.29
44138;BME280;29800;55.942;37.314;2023-03-14T03:06:07;98761.34;;;-2.71;85.73
44138;BME280;29800;55.942;37.314;2023-03-14T03:08:33;98760.78;;;-2.66;85.64
44138;BME280;29800;55.942;37.314;2023-03-14T03:11:01;98753.19;;;-2.63;85.72
44138;BME280;29800;55.942;37.314;2023-03-14T03:13:30;98754.94;;;-2.55;85.98
44138;BME280;29800;55.942;37.314;2023-03-14T03:15:57;98757.63;;;-2.55;85.84
44138;BME280;29800;55.942;37.314;2023-03-14T03:18:23;98751.69;;;-2.50;86.13
44138;BME280;29800;55.942;37.314;2023-03-14T03:20:50;98754.44;;;-2.44;85.92
44138;BME280;29800;55.942;37.314;2023-03-14T03:23:16;98733.25;;;-2.38;86.38
44138;BME280;29800;55.942;37.314;2023-03-14T03:25:42;98722.16;;;-2.35;86.19
44138;BME280;29800;55.942;37.314;2023-03-14T03:28:13;98729.56;;;-2.37;86.30
44138;BME280;29800;55.942;37.314;2023-03-14T03:30:40;98714.38;;;-2.30;86.24
44138;BME280;29800;55.942;37.314;2023-03-14T03:33:07;98710.09;;;-2.25;86.47
44138;BME280;29800;55.942;37.314;2023-03-14T03:35:34;98700.88;;;-2.15;86.20
44138;BME280;29800;55.942;37.314;2023-03-14T03:38:00;98702.56;;;-2.14;85.88
44138;BME280;29800;55.942;37.314;2023-03-14T03:40:28;98697.38;;;-2.16;86.63
44138;BME280;29800;55.942;37.314;2023-03-14T03:42:54;98697.63;;;-2.11;86.12
44138;BME280;29800;55.942;37.314;2023-03-14T03:45:21;98689.44;;;-2.03;86.41
44138;BME280;29800;55.942;37.314;2023-03-14T03:47:53;98674.22;;;-1.95;86.42
44138;BME280;29800;55.942;37.314;2023-03-14T03:50:20;98670.28;;;-1.99;86.36
44138;BME280;29800;55.942;37.314;2023-03-14T03:52:47;98670.94;;;-1.91;86.19
44138;BME280;29800;55.942;37.314;2023-03-14T03:55:14;98665.19;;;-1.88;86.63
44138;BME280;29800;55.942;37.314;2023-03-14T03:57:40;98665.63;;;-1.84;86.42
44138;BME280;29800;55.942;37.314;2023-03-14T04:00:07;98672.28;;;-1.80;86.52
44138;BME280;29800;55.942;37.314;2023-03-14T04:02:42;98676.44;;;-1.71;86.48
44138;BME280;29800;55.942;37.314;2023-03-14T04:05:12;98672.75;;;-1.70;86.81
44138;BME280;29800;55.942;37.314;2023-03-14T04:07:44;98674.41;;;-1.69;87.00
44138;BME280;29800;55.942;37.314;2023-03-14T04:10:15;98665.91;;;-1.72;87.28
44138;BME280;29800;55.942;37.314;2023-03-14T04:12:47;98656.47;;;-1.68;87.30
44138;BME280;29800;55.942;37.314;2023-03-14T04:15:18;98655.88;;;-1.63;87.64
44138;BME280;29800;55.942;37.314;2023-03-14T04:17:48;98655.09;;;-1.57;87.69
44138;BME280;29800;55.942;37.314;2023-03-14T04:20:15;98641.91;;;-1.52;87.97
44138;BME280;29800;55.942;37.314;2023-03-14T04:22:41;98632.81;;;-1.44;87.63
44138;BME280;29800;55.942;37.314;2023-03-14T04:25:09;98649.38;;;-1.41;87.89
44138;BME280;29800;55.942;37.314;2023-03-14T04:27:40;98641.56;;;-1.36;87.63
44138;BME280;29800;55.942;37.314;2023-03-14T04:30:15;98628.78;;;-1.27;87.80
44138;BME280;29800;55.942;37.314;2023-03-14T04:33:07;98620.16;;;-1.16;87.41
44138;BME280;29800;55.942;37.314;2023-03-14T04:35:37;98621.19;;;-1.10;87.37
44138;BME280;29800;55.942;37.314;2023-03-14T04:38:08;98617.50;;;-0.96;87.27
44138;BME280;29800;55.942;37.314;2023-03-14T04:40:40;98595.81;;;-0.87;87.23
44138;BME280;29800;55.942;37.314;2023-03-14T04:43:08;98589.66;;;-0.81;87.06
44138;BME280;29800;55.942;37.314;2023-03-14T04:45:41;98591.13;;;-0.72;86.67
44138;BME280;29800;55.942;37.314;2023-03-14T04:48:09;98584.91;;;-0.66;86.70
44138;BME280;29800;55.942;37.314;2023-03-14T04:50:37;98573.94;;;-0.58;86.50
44138;BME280;29800;55.942;37.314;2023-03-14T04:53:04;98571.91;;;-0.49;86.54
44138;BME280;29800;55.942;37.314;2023-03-14T04:55:31;98569.00;;;-0.41;86.17
44138;BME280;29800;55.942;37.314;2023-03-14T04:57:58;98576.00;;;-0.33;86.12
44138;BME280;29800;55.942;37.314;2023-03-14T05:00:25;98565.28;;;-0.26;86.16
44138;BME280;29800;55.942;37.314;2023-03-14T05:03:10;98565.06;;;-0.18;85.49
44138;BME280;29800;55.942;37.314;2023-03-14T05:06:05;98566.06;;;-0.12;85.44
44138;BME280;29800;55.942;37.314;2023-03-14T05:08:52;98563.56;;;-0.07;85.16
44138;BME280;29800;55.942;37.314;2023-03-14T05:11:18;98570.19;;;-0.03;84.94
44138;BME280;29800;55.942;37.314;2023-03-14T05:14:04;98571.16;;;0.16;84.67
44138;BME280;29800;55.942;37.314;2023-03-14T05:16:39;98576.75;;;0.14;84.68
44138;BME280;29800;55.942;37.314;2023-03-14T05:19:28;98552.34;;;0.16;84.12
44138;BME280;29800;55.942;37.314;2023-03-14T05:22:11;98569.31;;;0.23;84.09
44138;BME280;29800;55.942;37.314;2023-03-14T05:24:46;98569.28;;;0.30;84.39
44138;BME280;29800;55.942;37.314;2023-03-14T05:27:31;98579.59;;;0.40;84.00
44138;BME280;29800;55.942;37.314;2023-03-14T05:30:01;98579.59;;;0.46;83.75
44138;BME280;29800;55.942;37.314;2023-03-14T05:33:03;98592.16;;;0.59;83.64
44138;BME280;29800;55.942;37.314;2023-03-14T05:35:42;98583.63;;;0.69;83.50
44138;BME280;29800;55.942;37.314;2023-03-14T05:38:27;98581.56;;;0.71;82.94
44138;BME280;29800;55.942;37.314;2023-03-14T05:41:16;98587.72;;;0.78;82.46
44138;BME280;29800;55.942;37.314;2023-03-14T05:44:00;98576.09;;;0.84;82.67
44138;BME280;29800;55.942;37.314;2023-03-14T05:46:50;98591.41;;;0.90;82.40
44138;BME280;29800;55.942;37.314;2023-03-14T05:49:42;98587.00;;;0.96;82.29
44138;BME280;29800;55.942;37.314;2023-03-14T05:52:28;98583.75;;;1.19;82.22
44138;BME280;29800;55.942;37.314;2023-03-14T05:55:07;98590.22;;;1.18;81.35
44138;BME280;29800;55.942;37.314;2023-03-14T05:57:36;98578.31;;;1.26;80.75
44138;BME280;29800;55.942;37.314;2023-03-14T06:00:21;98582.47;;;1.28;81.10
44138;BME280;29800;55.942;37.314;2023-03-14T06:03:11;98580.31;;;1.37;80.65
44138;BME280;29800;55.942;37.314;2023-03-14T06:05:42;98579.66;;;1.42;80.05
44138;BME280;29800;55.942;37.314;2023-03-14T06:08:09;98574.81;;;1.51;79.97
44138;BME280;29800;55.942;37.314;2023-03-14T06:10:36;98578.97;;;1.53;79.86
44138;BME280;29800;55.942;37.314;2023-03-14T06:13:04;98575.59;;;1.58;79.65
44138;BME280;29800;55.942;37.314;2023-03-14T06:15:33;98573.88;;;1.63;79.95
44138;BME280;29800;55.942;37.314;2023-03-14T06:17:59;98576.91;;;1.74;79.23
44138;BME280;29800;55.942;37.314;2023-03-14T06:20:26;98568.81;;;1.74;78.88
44138;BME280;29800;55.942;37.314;2023-03-14T06:22:53;98562.16;;;1.76;78.77
44138;BME280;29800;55.942;37.314;2023-03-14T06:25:20;98579.28;;;1.89;79.24
44138;BME280;29800;55.942;37.314;2023-03-14T06:27:47;98571.94;;;1.96;78.54
44138;BME280;29800;55.942;37.314;2023-03-14T06:30:15;98574.88;;;1.94;78.57
44138;BME280;29800;55.942;37.314;2023-03-14T06:32:41;98567.78;;;1.93;78.17
44138;BME280;29800;55.942;37.314;2023-03-14T06:35:11;98573.13;;;2.00;78.33
44138;BME280;29800;55.942;37.314;2023-03-14T06:37:40;98577.41;;;2.08;77.48
44138;BME280;29800;55.942;37.314;2023-03-14T06:40:11;98573.03;;;2.13;77.70
44138;BME280;29800;55.942;37.314;2023-03-14T06:43:08;98565.50;;;2.15;77.80
44138;BME280;29800;55.942;37.314;2023-03-14T06:45:36;98567.16;;;2.16;77.18
44138;BME280;29800;55.942;37.314;2023-03-14T06:48:03;98550.91;;;2.23;77.70
44138;BME280;29800;55.942;37.314;2023-03-14T06:50:50;98561.94;;;2.22;77.83
44138;BME280;29800;55.942;37.314;2023-03-14T06:53:16;98553.81;;;2.22;77.17
44138;BME280;29800;55.942;37.314;2023-03-14T06:55:43;98560.78;;;2.29;77.29
44138;BME280;29800;55.942;37.314;2023-03-14T06:58:14;98555.31;;;2.36;77.10
44138;BME280;29800;55.942;37.314;2023-03-14T07:00:43;98561.56;;;2.36;77.43
44138;BME280;29800;55.942;37.314;2023-03-14T07:03:13;98561.09;;;2.39;77.22
44138;BME280;29800;55.942;37.314;2023-03-14T07:05:43;98561.84;;;2.47;77.06
44138;BME280;29800;55.942;37.314;2023-03-14T07:08:10;98553.88;;;2.52;77.23
44138;BME280;29800;55.942;37.314;2023-03-14T07:10:37;98536.31;;;2.61;76.68
44138;BME280;29800;55.942;37.314;2023-03-14T07:13:05;98544.09;;;2.69;76.81
44138;BME280;29800;55.942;37.314;2023-03-14T07:15:35;98553.53;;;2.79;76.22
44138;BME280;29800;55.942;37.314;2023-03-14T07:18:06;98559.69;;;2.86;76.38
44138;BME280;29800;55.942;37.314;2023-03-14T07:20:33;98548.41;;;2.89;76.07
44138;BME280;29800;55.942;37.314;2023-03-14T07:23:00;98561.63;;;2.97;75.97
44138;BME280;29800;55.942;37.314;2023-03-14T07:25:46;98556.56;;;3.01;75.08
44138;BME280;29800;55.942;37.314;2023-03-14T07:28:14;98560.69;;;3.03;74.97
44138;BME280;29800;55.942;37.314;2023-03-14T07:30:43;98569.31;;;3.12;75.24
44138;BME280;29800;55.942;37.314;2023-03-14T07:33:17;98574.72;;;3.12;74.98
44138;BME280;29800;55.942;37.314;2023-03-14T07:35:43;98579.22;;;3.18;74.66
44138;BME280;29800;55.942;37.314;2023-03-14T07:38:09;98564.25;;;3.16;74.58
44138;BME280;29800;55.942;37.314;2023-03-14T07:40:43;98570.03;;;3.19;73.96
44138;BME280;29800;55.942;37.314;2023-03-14T07:43:10;98569.53;;;3.10;73.41
44138;BME280;29800;55.942;37.314;2023-03-14T07:45:47;98570.34;;;3.11;73.94
44138;BME280;29800;55.942;37.314;2023-03-14T07:48:13;98568.94;;;3.08;73.55
44138;BME280;29800;55.942;37.314;2023-03-14T07:50:40;98554.34;;;3.09;73.35
44138;BME280;29800;55.942;37.314;2023-03-14T07:53:06;98558.84;;;3.16;73.43
44138;BME280;29800;55.942;37.314;2023-03-14T07:55:32;98569.34;;;3.24;73.26
44138;BME280;29800;55.942;37.314;2023-03-14T07:57:59;98579.81;;;3.32;72.65
44138;BME280;29800;55.942;37.314;2023-03-14T08:00:25;98561.34;;;3.29;72.76
44138;BME280;29800;55.942;37.314;2023-03-14T08:02:51;98573.22;;;3.28;72.38
44138;BME280;29800;55.942;37.314;2023-03-14T08:05:17;98571.81;;;3.25;72.61
44138;BME280;29800;55.942;37.314;2023-03-14T08:07:44;98573.94;;;3.23;72.28
44138;BME280;29800;55.942;37.314;2023-03-14T08:10:10;98572.41;;;3.27;72.96
44138;BME280;29800;55.942;37.314;2023-03-14T08:12:38;98562.69;;;3.38;71.97
44138;BME280;29800;55.942;37.314;2023-03-14T08:15:05;98564.91;;;3.41;71.55
44138;BME280;29800;55.942;37.314;2023-03-14T08:17:32;98568.09;;;3.38;71.85
44138;BME280;29800;55.942;37.314;2023-03-14T08:19:58;98586.44;;;3.36;71.84
44138;BME280;29800;55.942;37.314;2023-03-14T08:22:25;98578.44;;;3.41;72.00
44138;BME280;29800;55.942;37.314;2023-03-14T08:24:51;98576.31;;;3.43;71.33
44138;BME280;29800;55.942;37.314;2023-03-14T08:27:17;98565.28;;;3.45;71.21
44138;BME280;29800;55.942;37.314;2023-03-14T08:29:43;98565.41;;;3.50;71.40
44138;BME280;29800;55.942;37.314;2023-03-14T08:32:10;98577.78;;;3.58;71.26
44138;BME280;29800;55.942;37.314;2023-03-14T08:34:36;98574.44;;;3.56;71.19
44138;BME280;29800;55.942;37.314;2023-03-14T08:37:03;98587.28;;;3.60;71.22
44138;BME280;29800;55.942;37.314;2023-03-14T08:39:29;98568.56;;;3.59;71.12
44138;BME280;29800;55.942;37.314;2023-03-14T08:41:55;98572.94;;;3.60;71.36
44138;BME280;29800;55.942;37.314;2023-03-14T08:44:22;98563.16;;;3.59;71.08
44138;BME280;29800;55.942;37.314;2023-03-14T08:46:48;98570.34;;;3.65;71.44
44138;BME280;29800;55.942;37.314;2023-03-14T08:49:14;98562.13;;;3.72;70.82
44138;BME280;29800;55.942;37.314;2023-03-14T08:51:40;98570.00;;;3.73;70.91
44138;BME280;29800;55.942;37.314;2023-03-14T08:54:10;98558.50;;;3.78;70.93
44138;BME280;29800;55.942;37.314;2023-03-14T08:56:36;98550.94;;;3.80;70.49
44138;BME280;29800;55.942;37.314;2023-03-14T08:59:04;98551.91;;;3.85;70.42
44138;BME280;29800;55.942;37.314;2023-03-14T09:01:30;98548.38;;;3.97;70.04
44138;BME280;29800;55.942;37.314;2023-03-14T09:03:56;98544.22;;;4.06;69.64
44138;BME280;29800;55.942;37.314;2023-03-14T09:06:23;98549.19;;;4.09;69.34
44138;BME280;29800;55.942;37.314;2023-03-14T09:08:49;98550.38;;;4.13;68.76
44138;BME280;29800;55.942;37.314;2023-03-14T09:11:15;98550.59;;;4.12;68.86
44138;BME280;29800;55.942;37.314;2023-03-14T09:13:41;98562.00;;;4.14;68.26
44138;BME280;29800;55.942;37.314;2023-03-14T09:16:08;98555.78;;;4.13;68.02
44138;BME280;29800;55.942;37.314;2023-03-14T09:18:35;98558.72;;;4.12;67.89
44138;BME280;29800;55.942;37.314;2023-03-14T09:21:01;98578.97;;;4.09;68.02
44138;BME280;29800;55.942;37.314;2023-03-14T09:23:28;98566.72;;;4.18;67.51
44138;BME280;29800;55.942;37.314;2023-03-14T09:25:57;98574.13;;;4.23;67.52
44138;BME280;29800;55.942;37.314;2023-03-14T09:28:24;98579.69;;;4.28;67.10
44138;BME280;29800;55.942;37.314;2023-03-14T09:30:50;98578.94;;;4.33;66.75
44138;BME280;29800;55.942;37.314;2023-03-14T09:33:17;98587.69;;;4.35;66.81
44138;BME280;29800;55.942;37.314;2023-03-14T09:35:44;98584.72;;;4.36;66.19
44138;BME280;29800;55.942;37.314;2023-03-14T09:38:10;98586.25;;;4.32;66.48
44138;BME280;29800;55.942;37.314;2023-03-14T09:40:37;98578.94;;;4.33;65.91
44138;BME280;29800;55.942;37.314;2023-03-14T09:43:04;98580.13;;;4.37;65.72
44138;BME280;29800;55.942;37.314;2023-03-14T09:45:39;98576.38;;;4.38;66.01
44138;BME280;29800;55.942;37.314;2023-03-14T09:48:15;98568.81;;;4.40;65.83
44138;BME280;29800;55.942;37.314;2023-03-14T09:50:45;98572.69;;;4.32;65.98
44138;BME280;29800;55.942;37.314;2023-03-14T09:53:25;98569.88;;;4.39;66.35
44138;BME280;29800;55.942;37.314;2023-03-14T09:55:53;98584.25;;;4.28;66.16
44138;BME280;29800;55.942;37.314;2023-03-14T09:58:23;98588.03;;;4.27;66.52
44138;BME280;29800;55.942;37.314;2023-03-14T10:00:52;98582.84;;;4.25;66.34
44138;BME280;29800;55.942;37.314;2023-03-14T10:05:46;98572.63;;;4.15;66.80
44138;BME280;29800;55.942;37.314;2023-03-14T10:08:13;98567.66;;;4.12;67.43
44138;BME280;29800;55.942;37.314;2023-03-14T10:10:41;98566.47;;;4.08;68.26
44138;BME280;29800;55.942;37.314;2023-03-14T10:13:19;98572.75;;;4.09;68.52
44138;BME280;29800;55.942;37.314;2023-03-14T10:16:02;98576.72;;;4.06;69.44
44138;BME280;29800;55.942;37.314;2023-03-14T10:18:30;98583.31;;;3.98;69.40
44138;BME280;29800;55.942;37.314;2023-03-14T10:21:07;98577.91;;;3.98;70.50
44138;BME280;29800;55.942;37.314;2023-03-14T10:23:42;98568.38;;;3.96;70.79
44138;BME280;29800;55.942;37.314;2023-03-14T10:26:15;98587.56;;;3.94;70.60
44138;BME280;29800;55.942;37.314;2023-03-14T10:28:51;98572.13;;;3.95;71.02
44138;BME280;29800;55.942;37.314;2023-03-14T10:31:18;98568.38;;;3.96;71.47
44138;BME280;29800;55.942;37.314;2023-03-14T10:34:01;98555.06;;;4.06;71.85
44138;BME280;29800;55.942;37.314;2023-03-14T10:36:33;98545.66;;;4.09;71.38
44138;BME280;29800;55.942;37.314;2023-03-14T10:41:50;98552.94;;;4.08;70.99
44138;BME280;29800;55.942;37.314;2023-03-14T10:44:21;98532.13;;;3.97;71.33
44138;BME280;29800;55.942;37.314;2023-03-14T10:47:03;98525.28;;;4.06;71.82
44138;BME280;29800;55.942;37.314;2023-03-14T10:49:35;98525.84;;;4.08;71.46
44138;BME280;29800;55.942;37.314;2023-03-14T10:52:27;98503.00;;;4.16;70.97
44138;BME280;29800;55.942;37.314;2023-03-14T10:55:03;98506.28;;;4.18;71.13
44138;BME280;29800;55.942;37.314;2023-03-14T10:57:30;98507.72;;;4.20;70.34
44138;BME280;29800;55.942;37.314;2023-03-14T10:59:56;98515.38;;;4.23;70.51
44138;BME280;29800;55.942;37.314;2023-03-14T11:02:40;98531.84;;;4.34;70.61
44138;BME280;29800;55.942;37.314;2023-03-14T11:08:08;98527.31;;;4.51;69.35
44138;BME280;29800;55.942;37.314;2023-03-14T11:10:38;98524.00;;;4.49;69.34
44138;BME280;29800;55.942;37.314;2023-03-14T11:13:29;98518.22;;;4.57;69.16
44138;BME280;29800;55.942;37.314;2023-03-14T11:16:23;98522.38;;;4.77;68.24
44138;BME280;29800;55.942;37.314;2023-03-14T11:19:17;98528.69;;;4.94;67.58
44138;BME280;29800;55.942;37.314;2023-03-14T11:21:56;98537.69;;;5.12;66.98
44138;BME280;29800;55.942;37.314;2023-03-14T11:30:35;98527.78;;;5.34;66.12
44138;BME280;29800;55.942;37.314;2023-03-14T11:38:46;98519.06;;;5.66;64.46
44138;BME280;29800;55.942;37.314;2023-03-14T11:41:32;98530.81;;;5.72;64.28
44138;BME280;29800;55.942;37.314;2023-03-14T11:44:04;98535.25;;;5.61;63.23
44138;BME280;29800;55.942;37.314;2023-03-14T11:46:50;98535.69;;;5.53;63.40
44138;BME280;29800;55.942;37.314;2023-03-14T11:52:05;98545.84;;;5.46;63.43
44138;BME280;29800;55.942;37.314;2023-03-14T11:57:10;98564.59;;;5.47;62.44
44138;BME280;29800;55.942;37.314;2023-03-14T12:02:22;98556.53;;;5.52;62.40
44138;BME280;29800;55.942;37.314;2023-03-14T12:08:20;98572.09;;;5.57;61.92
44138;BME280;29800;55.942;37.314;2023-03-14T12:11:04;98560.91;;;5.53;61.71
44138;BME280;29800;55.942;37.314;2023-03-14T12:13:37;98563.31;;;5.50;61.58
44138;BME280;29800;55.942;37.314;2023-03-14T12:16:19;98558.44;;;5.52;60.76
44138;BME280;29800;55.942;37.314;2023-03-14T12:18:53;98549.25;;;5.53;60.46
44138;BME280;29800;55.942;37.314;2023-03-14T12:21:21;98549.75;;;5.50;60.95
44138;BME280;29800;55.942;37.314;2023-03-14T12:23:56;98565.53;;;5.53;60.72
44138;BME280;29800;55.942;37.314;2023-03-14T12:26:25;98564.84;;;5.46;60.71
44138;BME280;29800;55.942;37.314;2023-03-14T12:36:54;98566.34;;;5.37;61.33
44138;BME280;29800;55.942;37.314;2023-03-14T12:39:50;98558.28;;;5.42;61.48
44138;BME280;29800;55.942;37.314;2023-03-14T12:42:45;98552.84;;;5.42;61.64
44138;BME280;29800;55.942;37.314;2023-03-14T12:45:22;98553.44;;;5.44;61.39
44138;BME280;29800;55.942;37.314;2023-03-14T12:47:53;98536.72;;;5.52;60.82
44138;BME280;29800;55.942;37.314;2023-03-14T12:50:25;98542.97;;;5.52;60.90
44138;BME280;29800;55.942;37.314;2023-03-14T12:55:36;98556.41;;;5.59;60.67
44138;BME280;29800;55.942;37.314;2023-03-14T13:00:40;98563.72;;;5.59;60.67
44138;BME280;29800;55.942;37.314;2023-03-14T13:03:21;98541.34;;;5.68;61.09
44138;BME280;29800;55.942;37.314;2023-03-14T13:06:01;98560.25;;;5.63;61.14
44138;BME280;29800;55.942;37.314;2023-03-14T13:08:43;98548.19;;;5.71;61.38
44138;BME280;29800;55.942;37.314;2023-03-14T13:11:16;98539.72;;;5.67;60.85
44138;BME280;29800;55.942;37.314;2023-03-14T13:13:49;98547.25;;;5.65;61.09
44138;BME280;29800;55.942;37.314;2023-03-14T13:16:21;98550.22;;;5.64;61.28
44138;BME280;29800;55.942;37.314;2023-03-14T13:18:49;98564.97;;;5.68;60.74
44138;BME280;29800;55.942;37.314;2023-03-14T13:21:27;98551.22;;;5.75;60.59
44138;BME280;29800;55.942;37.314;2023-03-14T13:23:57;98538.13;;;5.71;60.45
44138;BME280;29800;55.942;37.314;2023-03-14T13:26:35;98544.06;;;5.68;60.71
44138;BME280;29800;55.942;37.314;2023-03-14T13:29:16;98552.88;;;5.76;60.31
44138;BME280;29800;55.942;37.314;2023-03-14T13:31:45;98541.09;;;5.70;60.25
44138;BME280;29800;55.942;37.314;2023-03-14T13:34:11;98540.22;;;5.64;60.14
44138;BME280;29800;55.942;37.314;2023-03-14T13:36:38;98561.94;;;5.64;59.93
44138;BME280;29800;55.942;37.314;2023-03-14T13:39:10;98545.38;;;5.66;59.90
44138;BME280;29800;55.942;37.314;2023-03-14T13:41:39;98542.84;;;5.59;59.20
44138;BME280;29800;55.942;37.314;2023-03-14T13:44:17;98543.97;;;5.63;59.47
44138;BME280;29800;55.942;37.314;2023-03-14T13:46:45;98542.25;;;5.57;59.06
44138;BME280;29800;55.942;37.314;2023-03-14T13:49:20;98555.81;;;5.57;58.90
44138;BME280;29800;55.942;37.314;2023-03-14T13:51:47;98545.44;;;5.54;58.63
44138;BME280;29800;55.942;37.314;2023-03-14T13:54:15;98550.06;;;5.53;58.46
44138;BME280;29800;55.942;37.314;2023-03-14T13:56:42;98540.53;;;5.51;58.89
44138;BME280;29800;55.942;37.314;2023-03-14T13:59:29;98540.38;;;5.58;58.58
44138;BME280;29800;55.942;37.314;2023-03-14T14:02:02;98543.81;;;5.53;58.49
44138;BME280;29800;55.942;37.314;2023-03-14T14:04:33;98547.09;;;5.55;58.57